createdAt,value
2023-03-15T00:02:18.783Z,1.90
2023-03-15T00:04:56.574Z,1.90
2023-03-15T00:10:17.652Z,2.00
2023-03-15T00:12:58.964Z,2.00
2023-03-15T00:15:32.281Z,2.00
2023-03-15T00:18:03.358Z,2.00
2023-03-15T00:20:38.384Z,2.00
2023-03-15T00:23:19.479Z,2.10
2023-03-15T00:25:54.747Z,2.00
2023-03-15T00:28:27.594Z,2.00
2023-03-15T00:31:25.337Z,2.00
2023-03-15T00:33:59.415Z,2.10
2023-03-15T00:36:39.232Z,2.00
2023-03-15T00:39:15.665Z,2.00
2023-03-15T00:42:00.653Z,2.00
2023-03-15T00:44:34.328Z,2.00
2023-03-15T00:47:09.025Z,2.00
2023-03-15T00:49:39.753Z,2.00
2023-03-15T00:52:12.976Z,2.00
2023-03-15T00:54:52.140Z,2.10
2023-03-15T00:57:25.341Z,2.00
2023-03-15T00:59:56.435Z,2.00
2023-03-15T01:02:35.737Z,2.10
2023-03-15T01:05:06.366Z,2.10
2023-03-15T01:07:40.613Z,2.00
2023-03-15T01:10:14.123Z,2.00
2023-03-15T01:12:57.043Z,2.00
2023-03-15T01:15:26.524Z,2.00
2023-03-15T01:18:08.859Z,2.10
2023-03-15T01:20:37.823Z,2.10
2023-03-15T01:23:08.435Z,1.90
2023-03-15T01:25:41.131Z,1.90
2023-03-15T01:28:13.311Z,1.90
2023-03-15T01:30:59.778Z,1.90
2023-03-15T01:33:32.142Z,1.90
2023-03-15T01:36:05.997Z,1.70
2023-03-15T01:38:43.114Z,1.60
2023-03-15T01:41:14.390Z,1.50
2023-03-15T01:43:58.231Z,1.40
2023-03-15T01:46:29.785Z,1.40
2023-03-15T01:49:08.804Z,1.30
2023-03-15T01:51:47.398Z,1.30
2023-03-15T01:54:25.358Z,1.30
2023-03-15T01:56:58.772Z,1.40
2023-03-15T01:59:42.076Z,1.40
2023-03-15T02:02:19.242Z,1.30
2023-03-15T02:05:00.132Z,1.30
2023-03-15T02:07:37.590Z,1.30
2023-03-15T02:10:14.728Z,1.30
2023-03-15T02:12:49.400Z,1.40
2023-03-15T02:15:20.733Z,1.50
2023-03-15T02:17:57.024Z,1.50
2023-03-15T02:20:36.321Z,1.60
2023-03-15T02:23:16.262Z,1.70
2023-03-15T02:25:59.044Z,1.70
2023-03-15T02:28:38.707Z,1.80
2023-03-15T02:31:12.141Z,1.80
2023-03-15T02:33:52.978Z,1.80
2023-03-15T02:36:23.732Z,1.90
2023-03-15T02:38:53.828Z,1.90
2023-03-15T02:41:31.388Z,1.90
2023-03-15T02:44:09.281Z,1.90
2023-03-15T02:46:46.639Z,1.90
2023-03-15T02:49:18.575Z,1.90
2023-03-15T02:51:47.816Z,1.90
2023-03-15T02:54:21.648Z,1.90
2023-03-15T02:56:53.469Z,1.90
2023-03-15T02:59:27.959Z,1.90
2023-03-15T03:02:06.907Z,1.90
2023-03-15T03:04:41.898Z,1.90
2023-03-15T03:07:11.142Z,1.80
2023-03-15T03:09:48.967Z,1.80
2023-03-15T03:12:19.778Z,1.80
2023-03-15T03:14:53.662Z,1.80
2023-03-15T03:17:23.198Z,1.70
2023-03-15T03:19:54.688Z,1.60
2023-03-15T03:22:27.440Z,1.50
2023-03-15T03:24:56.274Z,1.40
2023-03-15T03:27:28.145Z,1.40
2023-03-15T03:30:09.907Z,1.40
2023-03-15T03:32:39.261Z,1.30
2023-03-15T03:35:11.147Z,1.20
2023-03-15T03:37:47.326Z,1.20
2023-03-15T03:40:22.834Z,1.10
2023-03-15T03:42:51.845Z,1.10
2023-03-15T03:45:28.129Z,1.10
2023-03-15T03:48:00.348Z,1.20
2023-03-15T03:50:30.070Z,1.20
2023-03-15T03:53:10.397Z,1.20
2023-03-15T03:55:42.966Z,1.30
2023-03-15T03:58:14.320Z,1.40
2023-03-15T04:01:22.014Z,1.50
2023-03-15T04:03:51.436Z,1.50
2023-03-15T04:06:22.052Z,1.60
2023-03-15T04:09:01.168Z,1.70
2023-03-15T04:11:32.116Z,1.80
2023-03-15T04:14:04.413Z,1.70
2023-03-15T04:16:35.854Z,1.50
2023-03-15T04:19:08.968Z,1.40
2023-03-15T04:21:38.374Z,1.20
2023-03-15T04:24:10.147Z,1.10
2023-03-15T04:26:43.965Z,1.10
2023-03-15T04:29:19.523Z,1.10
2023-03-15T04:32:12.828Z,1.10
2023-03-15T04:34:42.201Z,1.10
2023-03-15T04:37:14.749Z,1.20
2023-03-15T04:39:47.803Z,1.10
2023-03-15T04:42:16.754Z,1.10
2023-03-15T04:44:46.753Z,1.20
2023-03-15T04:47:23.160Z,1.20
2023-03-15T04:49:53.953Z,1.30
2023-03-15T04:52:24.876Z,1.30
2023-03-15T04:55:12.798Z,1.30
2023-03-15T04:57:42.108Z,1.30
2023-03-15T05:00:17.749Z,1.20
2023-03-15T05:02:56.728Z,1.30
2023-03-15T05:05:35.077Z,1.30
2023-03-15T05:08:16.514Z,1.40
2023-03-15T05:10:54.716Z,1.20
2023-03-15T05:13:25.932Z,1.20
2023-03-15T05:15:57.907Z,1.10
2023-03-15T05:18:40.606Z,1.10
2023-03-15T05:21:12.776Z,1.20
2023-03-15T05:23:44.467Z,1.20
2023-03-15T05:26:27.737Z,1.30
2023-03-15T05:29:02.350Z,1.20
2023-03-15T05:31:46.099Z,1.20
2023-03-15T05:34:27.864Z,1.30
2023-03-15T05:37:05.203Z,1.30
2023-03-15T05:39:47.402Z,1.40
2023-03-15T05:42:22.179Z,1.50
2023-03-15T05:44:54.694Z,1.50
2023-03-15T05:47:23.771Z,1.50
2023-03-15T05:50:05.244Z,1.50
2023-03-15T05:52:39.059Z,1.60
2023-03-15T05:55:15.815Z,1.70
2023-03-15T05:57:50.656Z,1.60
2023-03-15T06:00:28.362Z,1.70
2023-03-15T06:03:14.295Z,1.70
2023-03-15T06:05:51.864Z,1.60
2023-03-15T06:08:22.775Z,1.50
2023-03-15T06:11:07.144Z,1.30
2023-03-15T06:13:45.936Z,1.20
2023-03-15T06:16:23.141Z,1.10
2023-03-15T06:19:03.412Z,1.00
2023-03-15T06:21:39.175Z,1.00
2023-03-15T06:24:13.792Z,0.90
2023-03-15T06:26:53.218Z,0.90
2023-03-15T06:29:41.778Z,0.90
2023-03-15T06:32:26.058Z,0.90
2023-03-15T06:34:56.335Z,0.90
2023-03-15T06:37:35.462Z,0.90
2023-03-15T06:40:16.404Z,0.90
2023-03-15T06:43:08.129Z,0.90
2023-03-15T06:45:45.763Z,0.90
2023-03-15T06:48:24.980Z,0.90
2023-03-15T06:51:02.514Z,1.00
2023-03-15T06:53:45.660Z,0.90
2023-03-15T06:56:26.633Z,1.00
2023-03-15T06:59:09.913Z,1.00
2023-03-15T07:01:55.951Z,1.00
2023-03-15T07:04:44.854Z,1.10
2023-03-15T07:07:29.093Z,1.10
2023-03-15T07:10:16.962Z,1.10
2023-03-15T07:13:07.879Z,1.10
2023-03-15T07:15:47.974Z,1.10
2023-03-15T07:18:30.988Z,1.20
2023-03-15T07:21:02.117Z,1.40
2023-03-15T07:23:41.795Z,1.40
2023-03-15T07:26:29.191Z,1.40
2023-03-15T07:29:01.723Z,1.40
2023-03-15T07:32:01.690Z,1.40
2023-03-15T07:34:36.885Z,1.50
2023-03-15T07:37:26.855Z,1.60
2023-03-15T07:40:05.178Z,1.60
2023-03-15T07:42:42.810Z,1.60
2023-03-15T07:45:22.641Z,1.70
2023-03-15T07:48:05.842Z,1.80
2023-03-15T07:50:40.576Z,1.90
2023-03-15T07:53:26.332Z,2.00
2023-03-15T07:56:07.345Z,2.20
2023-03-15T07:59:06.628Z,2.30
2023-03-15T08:01:43.716Z,2.30
2023-03-15T08:04:17.607Z,2.40
2023-03-15T08:06:53.429Z,2.40
2023-03-15T08:09:29.662Z,2.50
2023-03-15T08:12:05.137Z,2.60
2023-03-15T08:14:44.025Z,2.70
2023-03-15T08:17:16.672Z,2.90
2023-03-15T08:19:49.743Z,2.90
2023-03-15T08:22:22.530Z,2.90
2023-03-15T08:24:54.678Z,3.00
2023-03-15T08:27:33.603Z,3.20
2023-03-15T08:30:08.467Z,3.30
2023-03-15T08:32:41.916Z,3.40
2023-03-15T08:35:21.272Z,3.50
2023-03-15T08:37:56.267Z,3.60
2023-03-15T08:40:35.306Z,3.70
2023-03-15T08:43:10.337Z,3.80
2023-03-15T08:46:00.343Z,3.90
2023-03-15T08:48:39.840Z,3.80
2023-03-15T08:51:22.060Z,3.80
2023-03-15T08:53:53.964Z,3.90
2023-03-15T08:56:32.355Z,4.10
2023-03-15T08:59:12.897Z,4.10
2023-03-15T09:01:46.212Z,4.00
2023-03-15T09:04:22.883Z,4.00
2023-03-15T09:06:56.889Z,4.00
2023-03-15T09:09:33.875Z,4.10
2023-03-15T09:12:20.507Z,4.40
2023-03-15T09:15:03.495Z,4.40
2023-03-15T09:17:48.155Z,4.40
2023-03-15T09:20:43.011Z,4.50
2023-03-15T09:23:21.003Z,4.50
2023-03-15T09:26:00.441Z,4.70
2023-03-15T09:28:35.897Z,4.70
2023-03-15T09:31:12.433Z,4.80
2023-03-15T09:34:07.705Z,4.80
2023-03-15T09:36:37.134Z,5.00
2023-03-15T09:39:09.238Z,5.20
2023-03-15T09:41:45.250Z,5.30
2023-03-15T09:44:36.592Z,5.50
2023-03-15T09:47:21.030Z,5.50
2023-03-15T09:49:54.124Z,5.50
2023-03-15T09:52:38.718Z,5.60
2023-03-15T09:55:13.952Z,5.70
2023-03-15T09:57:48.537Z,5.90
2023-03-15T10:00:22.241Z,6.10
2023-03-15T10:02:59.557Z,6.10
2023-03-15T10:05:38.675Z,6.10
2023-03-15T10:08:12.778Z,6.20
2023-03-15T10:10:52.519Z,6.30
2023-03-15T10:13:34.497Z,6.50
2023-03-15T10:16:12.378Z,6.60
2023-03-15T10:18:58.148Z,6.70
2023-03-15T10:21:41.700Z,6.80
2023-03-15T10:24:19.147Z,6.90
2023-03-15T10:26:50.678Z,7.10
2023-03-15T10:29:22.765Z,7.00
2023-03-15T10:31:52.786Z,7.00
2023-03-15T10:34:22.134Z,7.00
2023-03-15T10:36:55.730Z,7.20
2023-03-15T10:39:32.347Z,7.30
2023-03-15T10:42:01.574Z,7.40
2023-03-15T10:44:30.902Z,7.50
2023-03-15T10:47:21.541Z,7.60
2023-03-15T10:49:51.459Z,7.60
2023-03-15T10:52:35.063Z,7.80
2023-03-15T10:55:07.811Z,7.80
2023-03-15T10:57:40.405Z,8.10
2023-03-15T11:00:24.348Z,8.30
2023-03-15T11:03:04.047Z,8.40
2023-03-15T11:05:38.128Z,8.50
2023-03-15T11:08:16.800Z,8.30
2023-03-15T11:10:46.824Z,8.50
2023-03-15T11:13:25.814Z,8.90
2023-03-15T11:16:04.312Z,8.80
2023-03-15T11:18:39.374Z,8.80
2023-03-15T11:21:11.931Z,9.10
2023-03-15T11:23:44.494Z,9.10
2023-03-15T11:26:31.441Z,8.80
2023-03-15T11:29:04.259Z,8.80
2023-03-15T11:31:33.512Z,8.80
2023-03-15T11:34:07.477Z,9.10
2023-03-15T11:36:46.282Z,9.40
2023-03-15T11:39:27.844Z,9.60
2023-03-15T11:42:00.862Z,9.60
2023-03-15T11:44:37.405Z,9.80
2023-03-15T11:47:14.348Z,9.90
2023-03-15T11:49:51.367Z,9.70
2023-03-15T11:52:26.481Z,9.60
2023-03-15T11:54:59.032Z,9.80
2023-03-15T11:57:46.718Z,9.90
2023-03-15T12:00:41.449Z,10.00
2023-03-15T12:03:44.784Z,9.80
2023-03-15T12:06:41.412Z,10.10
2023-03-15T12:09:42.224Z,10.30
2023-03-15T12:12:41.549Z,10.50
2023-03-15T12:15:51.958Z,10.60
2023-03-15T12:18:32.487Z,10.10
2023-03-15T12:21:14.021Z,10.20
2023-03-15T12:23:47.054Z,10.40
2023-03-15T12:26:27.454Z,10.40
2023-03-15T12:29:21.831Z,10.20
2023-03-15T12:31:58.970Z,10.10
2023-03-15T12:34:38.489Z,9.80
2023-03-15T12:37:10.128Z,10.30
2023-03-15T12:39:45.793Z,10.60
2023-03-15T12:42:47.865Z,10.70
2023-03-15T12:45:43.562Z,10.90
2023-03-15T12:48:30.060Z,10.90
2023-03-15T12:51:16.165Z,10.80
2023-03-15T12:53:52.918Z,10.70
2023-03-15T12:56:51.576Z,10.90
2023-03-15T12:59:36.098Z,11.00
2023-03-15T13:02:23.159Z,11.50
2023-03-15T13:05:14.733Z,11.40
2023-03-15T13:07:56.707Z,11.10
2023-03-15T13:10:46.067Z,11.10
2023-03-15T13:13:47.250Z,11.10
2023-03-15T13:16:28.296Z,11.50
2023-03-15T13:19:08.169Z,11.70
2023-03-15T13:21:43.406Z,11.90
2023-03-15T13:24:21.839Z,12.10
2023-03-15T13:26:58.388Z,12.10
2023-03-15T13:29:31.124Z,12.30
2023-03-15T13:32:15.156Z,12.30
2023-03-15T13:34:46.825Z,12.20
2023-03-15T13:37:21.901Z,11.40
2023-03-15T13:39:56.718Z,10.90
2023-03-15T13:42:26.086Z,11.10
2023-03-15T13:45:18.824Z,11.40
2023-03-15T13:47:48.041Z,11.90
2023-03-15T13:50:19.449Z,11.90
2023-03-15T13:52:50.378Z,12.10
2023-03-15T13:55:25.241Z,12.20
2023-03-15T13:58:01.774Z,12.30
2023-03-15T14:00:33.938Z,12.20
2023-03-15T14:03:07.739Z,11.80
2023-03-15T14:05:45.559Z,11.40
2023-03-15T14:08:24.901Z,11.40
2023-03-15T14:11:05.965Z,11.70
2023-03-15T14:13:36.690Z,12.00
2023-03-15T14:16:08.335Z,11.90
2023-03-15T14:18:40.701Z,11.60
2023-03-15T14:21:15.702Z,11.60
2023-03-15T14:23:48.558Z,11.80
2023-03-15T14:26:20.885Z,12.10
2023-03-15T14:28:52.992Z,12.20
2023-03-15T14:31:24.942Z,12.20
2023-03-15T14:34:00.865Z,11.90
2023-03-15T14:36:33.242Z,11.90
2023-03-15T14:39:03.419Z,12.20
2023-03-15T14:41:34.058Z,12.30
2023-03-15T14:44:04.116Z,12.10
2023-03-15T14:46:33.159Z,11.90
2023-03-15T14:49:02.490Z,11.90
2023-03-15T14:51:36.276Z,11.10
2023-03-15T14:54:06.720Z,10.80
2023-03-15T14:56:37.006Z,10.80
2023-03-15T14:59:12.326Z,11.00
2023-03-15T15:01:46.889Z,10.90
2023-03-15T15:04:16.264Z,10.90
2023-03-15T15:06:52.284Z,10.70
2023-03-15T15:09:24.954Z,11.00
2023-03-15T15:11:54.360Z,11.10
2023-03-15T15:14:23.453Z,11.20
2023-03-15T15:16:54.079Z,11.00
2023-03-15T15:19:22.954Z,11.20
2023-03-15T15:21:52.374Z,11.10
2023-03-15T15:24:25.750Z,11.40
2023-03-15T15:26:54.854Z,11.40
2023-03-15T15:29:24.474Z,11.40
2023-03-15T15:31:53.637Z,11.40
2023-03-15T15:34:22.406Z,11.20
2023-03-15T15:36:52.072Z,11.10
2023-03-15T15:39:27.035Z,11.10
2023-03-15T15:41:55.888Z,10.90
2023-03-15T15:44:27.413Z,10.80
2023-03-15T15:46:58.347Z,10.80
2023-03-15T15:49:27.184Z,10.90
2023-03-15T15:52:05.460Z,10.70
2023-03-15T15:54:36.248Z,10.50
2023-03-15T15:57:05.914Z,10.40
2023-03-15T15:59:34.753Z,10.30
2023-03-15T16:02:03.542Z,10.10
2023-03-15T16:04:33.014Z,10.00
2023-03-15T16:07:04.002Z,9.90
2023-03-15T16:09:36.417Z,9.80
2023-03-15T16:12:12.212Z,9.70
2023-03-15T16:14:40.997Z,9.60
2023-03-15T16:17:13.098Z,9.50
2023-03-15T16:19:41.844Z,9.40
2023-03-15T16:22:10.836Z,9.20
2023-03-15T16:24:45.564Z,9.20
2023-03-15T16:27:16.923Z,9.20
2023-03-15T16:29:47.942Z,9.10
2023-03-15T16:32:32.874Z,9.10
2023-03-15T16:35:07.832Z,9.00
2023-03-15T16:37:36.615Z,8.90
2023-03-15T16:40:16.256Z,8.90
2023-03-15T16:42:45.056Z,8.80
2023-03-15T16:45:16.176Z,8.70
2023-03-15T16:47:45.710Z,8.60
2023-03-15T16:50:17.759Z,8.50
2023-03-15T16:52:49.257Z,8.50
2023-03-15T16:55:23.214Z,8.40
2023-03-15T16:57:52.065Z,8.30
2023-03-15T17:00:21.639Z,8.20
2023-03-15T17:02:53.378Z,8.10
2023-03-15T17:05:25.129Z,8.00
2023-03-15T17:07:55.852Z,8.00
2023-03-15T17:10:28.165Z,7.90
2023-03-15T17:12:58.299Z,7.80
2023-03-15T17:15:28.887Z,7.70
2023-03-15T17:17:58.640Z,7.50
2023-03-15T17:20:29.757Z,7.30
2023-03-15T17:23:04.015Z,7.20
2023-03-15T17:25:35.511Z,7.20
2023-03-15T17:28:05.280Z,7.10
2023-03-15T17:30:36.398Z,7.00
2023-03-15T17:33:08.242Z,6.90
2023-03-15T17:35:39.737Z,6.80
2023-03-15T17:38:17.434Z,6.70
2023-03-15T17:40:48.993Z,6.50
2023-03-15T17:43:19.261Z,6.40
2023-03-15T17:45:48.082Z,6.20
2023-03-15T17:48:17.320Z,6.10
2023-03-15T17:50:46.388Z,6.10
2023-03-15T17:53:18.005Z,5.90
2023-03-15T17:55:49.338Z,5.80
2023-03-15T17:58:22.543Z,5.80
2023-03-15T18:00:54.893Z,5.70
2023-03-15T18:03:28.564Z,5.60
2023-03-15T18:06:05.441Z,5.50
2023-03-15T18:08:38.738Z,5.40
2023-03-15T18:11:33.039Z,5.40
2023-03-15T18:14:05.820Z,5.30
2023-03-15T18:16:41.102Z,5.30
2023-03-15T18:19:18.377Z,5.20
2023-03-15T18:22:01.321Z,5.20
2023-03-15T18:24:35.850Z,5.10
2023-03-15T18:27:07.145Z,5.10
2023-03-15T18:29:38.882Z,5.00
2023-03-15T18:32:09.434Z,4.90
2023-03-15T18:34:38.858Z,4.90
2023-03-15T18:37:12.475Z,4.90
2023-03-15T18:39:53.334Z,4.90
2023-03-15T18:42:23.762Z,4.80
2023-03-15T18:44:55.888Z,4.80
2023-03-15T18:47:25.150Z,4.70
2023-03-15T18:50:04.488Z,4.70
2023-03-15T18:52:39.017Z,4.70
2023-03-15T18:55:15.075Z,4.60
2023-03-15T18:57:46.487Z,4.60
2023-03-15T19:00:24.432Z,4.60
2023-03-15T19:02:54.620Z,4.60
2023-03-15T19:05:25.607Z,4.50
2023-03-15T19:07:56.891Z,4.50
2023-03-15T19:10:30.881Z,4.50
2023-03-15T19:13:04.361Z,4.50
2023-03-15T19:15:33.579Z,4.40
2023-03-15T19:18:02.963Z,4.40
2023-03-15T19:20:32.076Z,4.40
2023-03-15T19:23:05.242Z,4.30
2023-03-15T19:25:34.013Z,4.30
2023-03-15T19:28:04.659Z,4.30
2023-03-15T19:30:33.579Z,4.30
2023-03-15T19:33:02.693Z,4.30
2023-03-15T19:35:33.487Z,4.20
2023-03-15T19:38:05.269Z,4.20
2023-03-15T19:40:36.990Z,4.20
2023-03-15T19:43:16.720Z,4.20
2023-03-15T19:45:46.277Z,4.20
2023-03-15T19:48:16.546Z,4.20
2023-03-15T19:50:49.787Z,4.20
2023-03-15T19:53:22.278Z,4.10
2023-03-15T19:55:54.014Z,4.10
2023-03-15T19:58:24.879Z,4.00
2023-03-15T20:00:57.353Z,4.00
2023-03-15T20:03:26.365Z,4.00
2023-03-15T20:05:56.747Z,3.90
2023-03-15T20:08:26.505Z,3.90
2023-03-15T20:11:01.183Z,3.90
2023-03-15T20:13:31.926Z,3.80
2023-03-15T20:16:01.268Z,3.80
2023-03-15T20:18:30.028Z,3.80
2023-03-15T20:21:04.213Z,3.70
2023-03-15T20:23:36.141Z,3.70
2023-03-15T20:26:07.341Z,3.70
2023-03-15T20:28:41.805Z,3.60
2023-03-15T20:31:28.474Z,3.50
2023-03-15T20:34:12.084Z,3.50
2023-03-15T20:36:54.870Z,3.40
2023-03-15T20:39:29.980Z,3.40
2023-03-15T20:42:04.468Z,3.40
2023-03-15T20:44:37.932Z,3.30
2023-03-15T20:47:13.334Z,3.30
2023-03-15T20:49:44.016Z,3.30
2023-03-15T20:52:16.155Z,3.30
2023-03-15T20:54:53.692Z,3.20
2023-03-15T20:57:31.602Z,3.20
2023-03-15T21:00:18.738Z,3.20
2023-03-15T21:02:53.490Z,3.20
2023-03-15T21:05:28.459Z,3.10
2023-03-15T21:08:09.732Z,3.10
2023-03-15T21:10:42.967Z,3.10
2023-03-15T21:13:20.905Z,3.10
2023-03-15T21:16:05.090Z,3.10
2023-03-15T21:18:59.069Z,3.10
2023-03-15T21:22:02.496Z,3.10
2023-03-15T21:24:56.541Z,3.00
2023-03-15T21:27:41.170Z,3.00
2023-03-15T21:30:19.099Z,2.90
2023-03-15T21:32:59.047Z,2.90
2023-03-15T21:35:46.359Z,2.90
2023-03-15T21:38:27.068Z,2.80
2023-03-15T21:41:07.066Z,2.80
2023-03-15T21:44:03.233Z,2.70
2023-03-15T21:50:47.151Z,2.60
2023-03-15T21:53:22.960Z,2.60
2023-03-15T21:56:09.684Z,2.60
2023-03-15T21:59:00.282Z,2.50
2023-03-15T22:05:06.767Z,2.40
2023-03-15T22:07:45.034Z,2.50
2023-03-15T22:10:20.261Z,2.50
2023-03-15T22:13:10.297Z,2.50
2023-03-15T22:15:53.354Z,2.60
2023-03-15T22:18:29.141Z,2.60
2023-03-15T22:21:02.878Z,2.60
2023-03-15T22:26:44.922Z,2.60
2023-03-15T22:29:28.485Z,2.50
2023-03-15T22:32:06.915Z,2.60
2023-03-15T22:34:56.978Z,2.60
2023-03-15T22:37:36.272Z,2.60
2023-03-15T22:40:17.521Z,2.60
2023-03-15T22:42:59.964Z,2.60
2023-03-15T22:45:44.931Z,2.60
2023-03-15T22:48:14.348Z,2.60
2023-03-15T22:50:58.793Z,2.70
2023-03-15T22:53:31.574Z,2.80
2023-03-15T22:56:05.202Z,2.90
2023-03-15T22:58:46.022Z,3.00
2023-03-15T23:01:25.531Z,3.00
2023-03-15T23:04:10.431Z,3.10
2023-03-15T23:06:45.889Z,3.10
2023-03-15T23:09:16.828Z,3.20
2023-03-15T23:12:18.013Z,3.20
2023-03-15T23:14:50.446Z,3.30
2023-03-15T23:17:24.757Z,3.20
2023-03-15T23:20:01.883Z,3.20
2023-03-15T23:22:48.666Z,3.30
2023-03-15T23:25:27.124Z,3.30
2023-03-15T23:31:02.464Z,3.30
2023-03-15T23:33:34.260Z,3.30
2023-03-15T23:36:08.796Z,3.20
2023-03-15T23:38:40.494Z,3.20
2023-03-15T23:41:10.929Z,3.20
2023-03-15T23:43:43.292Z,3.20
2023-03-15T23:46:15.514Z,3.20
2023-03-15T23:48:46.912Z,3.30
2023-03-15T23:51:19.082Z,3.30
2023-03-15T23:53:50.425Z,3.30
2023-03-15T23:56:24.201Z,3.30
2023-03-15T23:59:02.813Z,3.30
